M I D A S
Marine Information and Data Acquisition System
Tripno 596 of the Zeeleeuw from 2003-09-23 06:59:19 to 2003-09-23 12:19:17
Back to CruiseResearch ActivitiesStationsMapUnderway DataData graphs

EquipmentUnitsComment
TimeDGPSUTC
LatitudeDGPSDM.mWGS84
LongitudeDGPSDM.mWGS84
HeadingGyrodeg 
SOGDGPSknotsSpeed over ground
COGDGPSdegCourse over ground
DepthEcho soundermeters200 kHz
Missing or incorrect values are displayed as -999
Navigation data collected by the RV Zeeleeuw from 2003-09-23 06:59:19 to 2003-09-23 12:19:17
Time Latitude Longitude Heading SOG COG Depth
2003-09-23 07:00:23 51°13.72 2°55.75 320.9 5.1 315 11.6
2003-09-23 07:01:23 51°13.8 2°55.66 334.1 5.4 330 11.9
2003-09-23 07:02:23 51°13.88 2°55.6 340.3 5.5 336 11.5
2003-09-23 07:03:23 51°13.96 2°55.54 340.4 5.9 336 11.9
2003-09-23 07:04:23 51°14.05 2°55.48 338.9 6 335 11.5
2003-09-23 07:05:23 51°14.15 2°55.4 337.3 7.4 332 11.8
2003-09-23 07:06:23 51°14.26 2°55.27 318.8 8.7 314 11.9
2003-09-23 07:07:23 51°14.36 2°55.08 317.2 10 313 11.6
2003-09-23 07:08:23 51°14.44 2°54.85 297.5 10 285 12.1
2003-09-23 07:09:23 51°14.44 2°54.57 267.8 11.1 258 11.7
2003-09-23 07:10:23 51°14.37 2°54.28 248.2 12.7 239 10.2
2003-09-23 07:11:23 51°14.27 2°53.97 249 13.2 243 10
2003-09-23 07:12:23 51°14.16 2°53.68 247 13.3 241 10.5
2003-09-23 07:13:23 51°14.05 2°53.35 248.2 14.2 242 10.5
2003-09-23 07:14:23 51°13.94 2°53.02 248.2 14.2 246 11.1
2003-09-23 07:15:23 51°13.83 2°52.68 246.8 14.3 245 11.4
2003-09-23 07:16:23 51°13.71 2°52.35 247.4 14.5 238 12
2003-09-23 07:17:23 51°13.6 2°52.02 247.1 14.3 240 11.8
2003-09-23 07:18:23 51°13.49 2°51.69 246.8 14.3 239 12.4
2003-09-23 07:19:23 51°13.37 2°51.36 248.7 13.9 240 11.7
2003-09-23 07:20:23 51°13.26 2°51.03 248.7 14.2 244 12.1
2003-09-23 07:21:23 51°13.15 2°50.7 246.8 14.3 241 12.1
2003-09-23 07:22:23 51°13.04 2°50.37 247.9 14.1 245 12.4
2003-09-23 07:23:23 51°12.92 2°50.04 246.7 14.2 243 12
2003-09-23 07:24:23 51°12.81 2°49.7 246.1 14.1 246 13.1
2003-09-23 07:25:23 51°12.7 2°49.38 246.3 14.2 239 12.6
2003-09-23 07:26:23 51°12.58 2°49.06 243.8 14 236 13.3
2003-09-23 07:27:23 51°12.46 2°48.74 242.5 14.4 236 13.2
2003-09-23 07:28:23 51°12.33 2°48.42 243.1 14.1 239 12.8
2003-09-23 07:29:23 51°12.2 2°48.11 242.1 14.4 236 13
2003-09-23 07:30:23 51°12.08 2°47.78 243.7 14 242 12.8
2003-09-23 07:31:23 51°11.96 2°47.46 243.6 14.6 233 12.6
2003-09-23 07:32:23 51°11.83 2°47.14 240.7 14.6 238 12.3
2003-09-23 07:33:23 51°11.75 2°46.8 255 14.1 250 12.6
2003-09-23 07:34:23 51°11.66 2°46.45 254.3 14 249 13.3
2003-09-23 07:35:23 51°11.58 2°46.1 253.6 14.1 248 13.1
2003-09-23 07:36:23 51°11.49 2°45.76 252.9 14.3 247 13
2003-09-23 07:37:23 51°11.4 2°45.41 254 14.1 248 12.8
2003-09-23 07:38:23 51°11.32 2°45.06 253 14.3 249 13.4
2003-09-23 07:39:23 51°11.23 2°44.71 253.1 14.4 242 13.2
2003-09-23 07:40:23 51°11.15 2°44.37 252.4 14 247 13.5
2003-09-23 07:41:23 51°11.07 2°44.02 252.5 14 251 12.8
2003-09-23 07:42:23 51°10.98 2°43.68 252.1 13.8 250 12.9
2003-09-23 07:43:23 51°10.92 2°43.32 263.3 14 256 13.5
2003-09-23 07:44:23 51°10.88 2°42.96 261.7 13.9 261 13.1
2003-09-23 07:45:23 51°10.83 2°42.61 263.6 13.5 255 13.8
2003-09-23 07:46:23 51°10.78 2°42.26 262.4 13.7 257 13.9
2003-09-23 07:47:23 51°10.74 2°41.91 262.7 13.3 260 14
2003-09-23 07:48:23 51°10.69 2°41.56 261.9 13.7 258 13.6
2003-09-23 07:49:23 51°10.64 2°41.21 262 13.5 259 14.2
2003-09-23 07:50:23 51°10.59 2°40.86 263.8 13.5 258 14.2
2003-09-23 07:51:23 51°10.54 2°40.52 262.6 13.4 256 14.5
2003-09-23 07:52:23 51°10.5 2°40.17 262.7 13.7 260 15.1
2003-09-23 07:53:23 51°10.45 2°39.82 262.1 13.5 256 16
2003-09-23 07:54:23 51°10.4 2°39.47 262.2 13.5 259 15.9
2003-09-23 07:55:23 51°10.35 2°39.12 262.7 13.5 256 17.4
2003-09-23 07:56:23 51°10.3 2°38.77 262.4 13.5 259 17.9
2003-09-23 07:57:23 51°10.25 2°38.42 262.4 13.4 257 17.9
2003-09-23 07:58:23 51°10.21 2°38.07 262.7 13.6 261 18.3
2003-09-23 07:59:23 51°10.16 2°37.72 262.6 13.5 258 18.9
2003-09-23 08:00:23 51°10.11 2°37.37 262.2 13.4 262 19.3
2003-09-23 08:01:23 51°10.07 2°37.03 262 13.2 258 19.8
2003-09-23 08:02:23 51°10.02 2°36.69 262.8 13.1 258 19.1
2003-09-23 08:03:23 51°10.01 2°36.34 273.2 13.2 274 19.8
2003-09-23 08:04:23 51°10.09 2°36.02 303.1 13 302 18.7
2003-09-23 08:05:23 51°10.24 2°35.78 327.5 12.7 325 12.3
2003-09-23 08:06:23 51°10.43 2°35.67 358.5 12.3 356 12.3
2003-09-23 08:07:23 51°10.64 2°35.71 12.9 12.7 11 12
2003-09-23 08:08:23 51°10.85 2°35.78 12.9 12.6 11 12.6
2003-09-23 08:09:23 51°11.04 2°35.89 33.4 13.1 35 12.4
2003-09-23 08:10:23 51°11.17 2°36.17 65.4 13.2 68 12.5
2003-09-23 08:11:23 51°11.28 2°36.47 57.5 13.3 54 13.4
2003-09-23 08:12:23 51°11.41 2°36.77 57.4 13.6 55 14.8
2003-09-23 08:13:23 51°11.53 2°37.06 59.7 13.3 57 15.6
2003-09-23 08:14:23 51°11.65 2°37.35 60 13.2 59 15.3
2003-09-23 08:15:23 51°11.77 2°37.65 60.1 13.4 56 15.7
2003-09-23 08:16:23 51°11.9 2°37.94 58.5 13.4 55 15.8
2003-09-23 08:17:23 51°12.02 2°38.24 60.5 13.3 57 15.4
2003-09-23 08:18:23 51°12.14 2°38.54 60.9 13.7 58 15.6
2003-09-23 08:19:23 51°12.26 2°38.84 60 13.3 59 15.7
2003-09-23 08:20:23 51°12.39 2°39.13 59.3 13.5 57 15.5
2003-09-23 08:21:23 51°12.51 2°39.43 59.1 13.7 58 15.1
2003-09-23 08:22:23 51°12.63 2°39.73 58 13.4 57 15.2
2003-09-23 08:23:23 51°12.76 2°40.03 59.9 13.8 52 14.8
2003-09-23 08:24:23 51°12.89 2°40.33 59.1 13.5 56 14.8
2003-09-23 08:25:23 51°13.01 2°40.63 60.5 13.3 60 15.2
2003-09-23 08:26:23 51°13.13 2°40.93 60.9 13.5 59 15.5
2003-09-23 08:27:23 51°13.25 2°41.22 59.5 13.3 55 15.7
2003-09-23 08:28:23 51°13.37 2°41.51 59.2 13.1 55 15.6
2003-09-23 08:29:23 51°13.5 2°41.8 59.9 13.3 57 16.6
2003-09-23 08:30:23 51°13.62 2°42.09 60.2 13.4 59 16.3
2003-09-23 08:31:23 51°13.75 2°42.38 59.1 13.4 52 17
2003-09-23 08:32:23 51°13.87 2°42.68 57.8 13.5 57 17.1
2003-09-23 08:33:23 51°14 2°42.97 59.8 13.6 59 17.2
2003-09-23 08:34:23 51°14.11 2°43.28 65.3 13.4 63 17.2
2003-09-23 08:35:23 51°14.22 2°43.59 65.9 13.6 62 16.7
2003-09-23 08:36:23 51°14.33 2°43.91 65.4 13.7 67 17
2003-09-23 08:37:23 51°14.44 2°44.23 63.8 13.6 60 16.5
2003-09-23 08:38:23 51°14.55 2°44.54 64.9 13.4 63 15.8
2003-09-23 08:39:23 51°14.66 2°44.86 65 13.7 58 15.6
2003-09-23 08:40:23 51°14.77 2°45.17 63.8 13.7 62 15.5
2003-09-23 08:41:23 51°14.88 2°45.5 70.3 13.7 66 15.3
2003-09-23 08:42:23 51°14.97 2°45.83 67.4 13.6 66 14.3
2003-09-23 08:43:23 51°15.06 2°46.16 69.9 13.6 64 13.7
2003-09-23 08:44:23 51°15.16 2°46.5 69.2 14 65 14.2
2003-09-23 08:45:23 51°15.26 2°46.83 67.5 13.8 62 14
2003-09-23 08:46:23 51°15.35 2°47.16 67.5 13.8 63 14.3
2003-09-23 08:47:23 51°15.45 2°47.5 69.2 13.8 69 13.9
2003-09-23 08:48:23 51°15.54 2°47.84 70.2 14.1 70 13.5
2003-09-23 08:49:23 51°15.63 2°48.17 71.2 13.9 64 13.9
2003-09-23 08:50:23 51°15.73 2°48.51 72 14.3 71 13.9
2003-09-23 08:51:23 51°15.82 2°48.85 68.9 14 67 14
2003-09-23 08:52:23 51°15.92 2°49.18 67.9 13.6 64 13.8
2003-09-23 08:53:23 51°16.01 2°49.52 68.6 13.8 67 13.2
2003-09-23 08:54:23 51°16.1 2°49.85 70.3 14 68 13.4
2003-09-23 08:55:23 51°16.19 2°50.19 66.6 13.8 64 12.6
2003-09-23 08:56:23 51°16.28 2°50.53 70.5 13.9 64 11.1
2003-09-23 08:57:23 51°16.38 2°50.86 65.5 13.9 60 13.1
2003-09-23 08:58:23 51°16.51 2°51.16 60.8 14 57 13.2
2003-09-23 08:59:23 51°16.64 2°51.45 52.9 13.8 50 13.8
2003-09-23 09:00:23 51°16.79 2°51.72 51.6 13.3 47 13.6
2003-09-23 09:01:23 51°16.93 2°52 53.5 13.5 50 12.7
2003-09-23 09:02:23 51°17.11 2°52.18 28 13 25 13
2003-09-23 09:03:23 51°17.32 2°52.24 9.3 12.6 5 13.1
2003-09-23 09:04:23 51°17.53 2°52.28 9.9 12.7 6 13
2003-09-23 09:05:23 51°17.73 2°52.32 10.1 12.3 7 13.2
2003-09-23 09:06:23 51°17.94 2°52.38 17.1 12.8 18 -999
2003-09-23 09:07:23 51°18.13 2°52.52 31 13 29 13.2
2003-09-23 09:08:23 51°18.29 2°52.75 52.9 13.3 53 13.4
2003-09-23 09:09:23 51°18.39 2°53.07 69.1 14 62 14
2003-09-23 09:10:23 51°18.5 2°53.4 66 13.6 60 13.2
2003-09-23 09:11:23 51°18.6 2°53.72 64.8 13.5 62 14
2003-09-23 09:12:23 51°18.71 2°54.03 65.9 13.9 59 13.5
2003-09-23 09:13:23 51°18.83 2°54.35 63.9 13.6 58 13.4
2003-09-23 09:14:23 51°18.93 2°54.68 65.9 13.7 57 13.7
2003-09-23 09:15:23 51°19.03 2°55 67.9 13.7 63 13.3
2003-09-23 09:16:23 51°19.13 2°55.32 65.6 13.5 63 12.8
2003-09-23 09:17:23 51°19.24 2°55.65 66.6 14 64 13.2
2003-09-23 09:18:23 51°19.33 2°55.98 68.8 14 65 13.9
2003-09-23 09:19:23 51°19.43 2°56.32 69.3 14.2 71 13.6
2003-09-23 09:20:23 51°19.53 2°56.65 68.6 14 60 13.8
2003-09-23 09:21:23 51°19.63 2°56.99 67.1 14 65 13.6
2003-09-23 09:22:23 51°19.73 2°57.33 68.3 14.3 67 13.4
2003-09-23 09:23:23 51°19.83 2°57.66 69.3 13.6 66 13.4
2003-09-23 09:24:23 51°19.92 2°58.01 68.8 14 64 12.6
2003-09-23 09:25:23 51°20 2°58.36 70.2 13.8 66 13
2003-09-23 09:26:23 51°20.09 2°58.7 71.9 14.2 68 13.6
2003-09-23 09:27:23 51°20.18 2°59.05 75.4 14.5 71 13.4
2003-09-23 09:28:23 51°20.26 2°59.41 74.4 14.3 70 13
2003-09-23 09:29:23 51°20.35 2°59.76 72.7 14.1 73 13.1
2003-09-23 09:30:23 51°20.42 3°0.12 75.3 14.6 77 13.2
2003-09-23 09:31:23 51°20.51 3°0.47 71.5 14.3 75 12.4
2003-09-23 09:32:23 51°20.59 3°0.83 75.7 14.3 74 12.4
2003-09-23 09:33:23 51°20.67 3°1.19 72.9 14.2 71 12.5
2003-09-23 09:34:23 51°20.75 3°1.54 75.8 14.5 74 12.8
2003-09-23 09:35:23 51°20.83 3°1.9 74.2 14.5 68 12.6
2003-09-23 09:36:23 51°20.91 3°2.26 72.8 14.2 75 12.6
2003-09-23 09:37:23 51°21 3°2.61 71.7 14.2 67 12.9
2003-09-23 09:38:23 51°21.09 3°2.97 72 14.5 65 12.7
2003-09-23 09:39:23 51°21.18 3°3.33 70.1 14.4 70 12.8
2003-09-23 09:40:23 51°21.27 3°3.68 73.4 14.1 69 13.2
2003-09-23 09:41:23 51°21.35 3°4.04 73.5 14.4 69 13.2
2003-09-23 09:42:23 51°21.44 3°4.39 69.5 14.5 63 13.2
2003-09-23 09:43:23 51°21.53 3°4.74 70.2 14.2 66 13.5
2003-09-23 09:44:23 51°21.62 3°5.1 72.7 14.5 73 13.7
2003-09-23 09:45:23 51°21.71 3°5.45 74.2 14.7 68 13.4
2003-09-23 09:46:23 51°21.8 3°5.81 73.1 14.6 71 14
2003-09-23 09:47:23 51°21.89 3°6.17 70.9 14.5 72 14.4
2003-09-23 09:48:23 51°21.98 3°6.53 71.5 14.6 70 14
2003-09-23 09:49:23 51°22.07 3°6.89 70.6 14.7 68 14.6
2003-09-23 09:50:23 51°22.16 3°7.26 70.6 15 70 14.6
2003-09-23 09:51:23 51°22.25 3°7.62 71.1 15 67 14.8
2003-09-23 09:52:23 51°22.34 3°7.99 72.5 14.6 65 15.1
2003-09-23 09:53:23 51°22.42 3°8.36 73.3 14.8 66 15.2
2003-09-23 09:54:23 51°22.51 3°8.73 76 14.9 68 15.3
2003-09-23 09:55:23 51°22.57 3°9.11 77.2 14.8 78 15.6
2003-09-23 09:56:23 51°22.64 3°9.49 81.2 15.2 74 15.5
2003-09-23 09:57:23 51°22.7 3°9.89 81.8 15 75 21.9
2003-09-23 09:58:23 51°22.74 3°10.27 86.2 14.9 80 17.7
2003-09-23 09:59:23 51°22.78 3°10.66 86.1 15.5 75 16.9
2003-09-23 10:00:23 51°22.82 3°11.06 84.3 14.8 79 16.6
2003-09-23 10:01:23 51°22.85 3°11.45 86.6 15 80 16.5
2003-09-23 10:02:23 51°22.89 3°11.84 81.5 14.7 77 15.9
2003-09-23 10:03:23 51°22.95 3°12.23 68.2 15 70 14.5
2003-09-23 10:04:23 51°23.06 3°12.6 69.3 15.3 68 14.5
2003-09-23 10:05:23 51°23.16 3°12.96 70.1 14.8 68 14
2003-09-23 10:06:23 51°23.29 3°13.3 58 15 56 12.2
2003-09-23 10:07:23 51°23.42 3°13.64 58.7 14.9 60 13.7
2003-09-23 10:08:23 51°23.55 3°13.97 59.2 15.1 57 14.6
2003-09-23 10:09:23 51°23.69 3°14.28 45.1 14.2 42 13.4
2003-09-23 10:10:23 51°23.89 3°14.47 17.5 13.3 18 14.1
2003-09-23 10:11:23 51°24.1 3°14.55 359.3 13.1 1 13.5
2003-09-23 10:12:23 51°24.31 3°14.51 343.5 12.6 348 17.9
2003-09-23 10:13:23 51°24.49 3°14.4 325.5 11.3 326 20.6
2003-09-23 10:14:23 51°24.57 3°14.14 280.9 11.5 278 21.4
2003-09-23 10:15:23 51°24.59 3°13.84 275.6 11.7 273 20.8
2003-09-23 10:16:23 51°24.59 3°13.53 272.9 11.5 270 21
2003-09-23 10:17:23 51°24.57 3°13.23 267.3 11.4 264 20.3
2003-09-23 10:18:23 51°24.55 3°12.93 264.9 11.3 263 19.6
2003-09-23 10:19:23 51°24.52 3°12.64 264.8 11.1 262 19.9
2003-09-23 10:20:23 51°24.48 3°12.35 262.1 11 255 20.8
2003-09-23 10:21:23 51°24.44 3°12.06 262.2 11.1 259 21.2
2003-09-23 10:22:23 51°24.4 3°11.78 261.6 11.2 259 20.6
2003-09-23 10:23:23 51°24.36 3°11.49 262.5 11 256 21
2003-09-23 10:24:23 51°24.32 3°11.2 262.3 11.1 258 20.9
2003-09-23 10:25:23 51°24.28 3°10.91 261.7 11.2 259 20.5
2003-09-23 10:26:23 51°24.24 3°10.62 262.6 11.1 259 21.6
2003-09-23 10:27:23 51°24.21 3°10.32 263.4 11.3 260 21.4
2003-09-23 10:28:23 51°24.18 3°10.02 266.6 11.3 262 21.5
2003-09-23 10:29:23 51°24.15 3°9.73 266.1 11.6 258 21.8
2003-09-23 10:30:23 51°24.13 3°9.43 265.8 11.3 263 21.2
2003-09-23 10:31:23 51°24.1 3°9.12 269.7 11.4 265 21.4
2003-09-23 10:32:23 51°24.09 3°8.82 269.7 11.6 265 21
2003-09-23 10:33:23 51°24.07 3°8.51 269.3 11.8 266 21.5
2003-09-23 10:34:23 51°24.06 3°8.2 271.4 11.6 266 21.3
2003-09-23 10:35:23 51°24.06 3°7.89 271.9 11.6 267 21.6
2003-09-23 10:36:23 51°24.05 3°7.58 274 11.6 270 21.6
2003-09-23 10:37:23 51°24.05 3°7.27 273.2 11.9 268 21.4
2003-09-23 10:38:23 51°24.06 3°6.96 277.9 11.9 275 21.3
2003-09-23 10:39:23 51°24.07 3°6.64 277 11.6 272 20.8
2003-09-23 10:40:23 51°24.09 3°6.33 280.8 11.9 277 21.6
2003-09-23 10:41:23 51°24.1 3°6.01 280.3 11.8 276 21.1
2003-09-23 10:42:23 51°24.14 3°5.71 287.6 11.4 285 21.1
2003-09-23 10:43:23 51°24.2 3°5.41 289.3 11.8 289 20.7
2003-09-23 10:44:23 51°24.25 3°5.1 288.8 11.6 287 21.4
2003-09-23 10:45:23 51°24.31 3°4.8 288.6 12.2 289 20.9
2003-09-23 10:46:23 51°24.36 3°4.5 288.6 11.8 287 21.1
2003-09-23 10:47:23 51°24.42 3°4.2 286.1 11.1 284 20.7
2003-09-23 10:48:23 51°24.48 3°3.9 287.4 12 287 21.9
2003-09-23 10:49:23 51°24.53 3°3.6 288.3 11.9 284 22.1
2003-09-23 10:50:23 51°24.58 3°3.3 279.3 11.5 272 21.3
2003-09-23 10:51:23 51°24.51 3°3.01 252.3 11.8 252 22.2
2003-09-23 10:52:23 51°24.44 3°2.72 250.3 11.9 244 20.6
2003-09-23 10:53:23 51°24.3 3°2.48 230 12 223 20.3
2003-09-23 10:54:23 51°24.16 3°2.25 230.8 12 225 19.7
2003-09-23 10:55:23 51°24.01 3°2.02 232.4 12.4 225 19.1
2003-09-23 10:56:23 51°23.87 3°1.79 230.8 12.4 226 19.4
2003-09-23 10:57:23 51°23.73 3°1.55 233.1 12.2 225 18.7
2003-09-23 10:58:23 51°23.59 3°1.32 232.2 12.2 226 19
2003-09-23 10:59:23 51°23.45 3°1.08 232.4 11.9 231 18.6
2003-09-23 11:00:23 51°23.31 3°0.84 234 12.3 235 18.1
2003-09-23 11:01:23 51°23.17 3°0.61 233.7 12.4 224 17.6
2003-09-23 11:02:23 51°23.03 3°0.37 232.9 12.1 228 17.3
2003-09-23 11:03:23 51°22.9 3°0.13 231.8 12.3 230 17.6
2003-09-23 11:04:23 51°22.75 2°59.91 229.5 11.8 227 17.5
2003-09-23 11:05:23 51°22.61 2°59.69 229.5 11.6 221 16.7
2003-09-23 11:06:31 51°22.43 2°59.45 226 11.9 218 17.1
2003-09-23 11:07:29 51°22.27 2°59.25 225.6 12.2 217 16.4
2003-09-23 11:08:29 51°22.11 2°59.04 223.5 12.7 214 16
2003-09-23 11:09:29 51°21.96 2°58.84 222.6 12.6 220 15.6
2003-09-23 11:10:27 51°21.81 2°58.63 224.4 13.1 218 15.9
2003-09-23 11:11:27 51°21.66 2°58.42 228.3 11.2 224 16.7
2003-09-23 11:12:31 51°21.49 2°58.19 225.1 12.1 223 15.8
2003-09-23 11:13:29 51°21.34 2°57.99 222 12.6 221 15.6
2003-09-23 11:14:27 51°21.19 2°57.79 224.9 11.7 220 15.4
2003-09-23 11:15:29 51°21.03 2°57.58 225.7 12 222 15.4
2003-09-23 11:16:27 51°20.88 2°57.37 229.3 12.3 219 15
2003-09-23 11:17:27 51°20.74 2°57.14 232.2 12.2 219 15.1
2003-09-23 11:18:31 51°20.58 2°56.9 229.1 11.8 225 15.4
2003-09-23 11:19:29 51°20.44 2°56.68 227.5 12.3 222 15.2
2003-09-23 11:20:27 51°20.3 2°56.45 229.4 12.1 224 15.6
2003-09-23 11:21:31 51°20.15 2°56.21 227.9 12 232 14.9
2003-09-23 11:22:27 51°20.02 2°55.99 231.4 12.1 233 15.4
2003-09-23 11:23:33 51°19.87 2°55.73 232.1 11.7 221 14.8
2003-09-23 11:24:33 51°19.73 2°55.49 231.2 12.4 231 15
2003-09-23 11:25:33 51°19.6 2°55.25 233.7 11.9 227 14.4
2003-09-23 11:26:35 51°19.46 2°55.01 232.3 12 225 14.4
2003-09-23 11:27:37 51°19.31 2°54.76 232.5 12 229 14.1
2003-09-23 11:28:37 51°19.17 2°54.52 231.8 12.1 226 13.9
2003-09-23 11:29:37 51°19.03 2°54.29 230.2 12.2 225 14.5
2003-09-23 11:30:37 51°18.9 2°54.05 231.1 12.2 228 14.4
2003-09-23 11:31:37 51°18.76 2°53.81 232.9 12 230 14.1
2003-09-23 11:32:37 51°18.62 2°53.58 231.2 11.9 220 13.6
2003-09-23 11:33:37 51°18.49 2°53.35 228.8 12.2 217 13.8
2003-09-23 11:34:37 51°18.35 2°53.11 228.9 11.9 235 14
2003-09-23 11:35:35 51°18.22 2°52.88 233.6 11.8 227 13.6
2003-09-23 11:36:37 51°18.07 2°52.66 217.9 11.6 203 13.5
2003-09-23 11:37:37 51°17.87 2°52.58 193.5 13.4 185 13.1
2003-09-23 11:38:37 51°17.66 2°52.55 194.1 11.9 186 12.9
2003-09-23 11:39:37 51°17.45 2°52.5 193.5 12.8 185 12.7
2003-09-23 11:40:35 51°17.25 2°52.53 167.4 13.3 156 12.4
2003-09-23 11:41:37 51°17.04 2°52.7 156.1 13.7 150 12.8
2003-09-23 11:42:43 51°16.82 2°52.87 160 13.4 154 12
2003-09-23 11:43:43 51°16.62 2°53.03 159.8 14.1 153 14.1
2003-09-23 11:44:43 51°16.43 2°53.19 160.4 13.2 152 14.8
2003-09-23 11:45:43 51°16.23 2°53.36 158.3 13.7 147 14.8
2003-09-23 11:46:43 51°16.03 2°53.52 162.4 13.5 152 14.5
2003-09-23 11:47:43 51°15.83 2°53.67 166.4 13.5 155 14
2003-09-23 11:48:43 51°15.63 2°53.82 158.5 13.4 151 13.4
2003-09-23 11:49:43 51°15.43 2°53.97 159.4 11.2 152 12.6
2003-09-23 11:50:43 51°15.26 2°54.11 161.2 12.3 152 11.9
2003-09-23 11:51:43 51°15.12 2°54.24 145.9 8.6 135 11.5
2003-09-23 11:52:43 51°15.02 2°54.4 149.6 7.8 138 11.5
2003-09-23 11:53:43 51°14.94 2°54.54 146.5 7.4 131 11.6
2003-09-23 11:54:43 51°14.85 2°54.67 151.1 6.8 135 11.9
2003-09-23 11:55:43 51°14.78 2°54.76 159.6 4.7 143 12.1
2003-09-23 11:56:43 51°14.73 2°54.82 179.3 3.6 159 12.1
2003-09-23 11:57:43 51°14.68 2°54.83 196.2 2.6 183 12.1
2003-09-23 11:58:43 51°14.64 2°54.85 195.2 2.3 148 12.3
2003-09-23 11:59:43 51°14.6 2°54.87 195.5 3.3 149 11.7
2003-09-23 12:00:43 51°14.5 2°54.93 164.9 9.6 155 12
2003-09-23 12:01:43 51°14.36 2°55.1 135 11 132 13.3
2003-09-23 12:02:43 51°14.24 2°55.31 140.5 10.7 141 13.2
2003-09-23 12:03:43 51°14.11 2°55.42 157.5 7.2 154 12.6
2003-09-23 12:04:43 51°14.02 2°55.49 158.6 5.4 155 12.9
2003-09-23 12:05:43 51°13.94 2°55.55 157.2 5.4 153 13.4
2003-09-23 12:06:43 51°13.86 2°55.61 158.4 5.5 156 12.9
2003-09-23 12:07:43 51°13.78 2°55.67 152.9 5.3 150 13.4
2003-09-23 12:08:43 51°13.72 2°55.77 130.6 5.1 128 14.8
2003-09-23 12:09:43 51°13.67 2°55.88 128.4 5.2 126 13.2
2003-09-23 12:10:43 51°13.63 2°55.99 115.2 4.5 114 12.8
2003-09-23 12:11:43 51°13.61 2°56.07 116.2 1.9 113 11.1
2003-09-23 12:12:43 51°13.6 2°56.1 124.1 0.8 129 9.7
2003-09-23 12:13:43 51°13.6 2°56.11 115.6 0.5 130 9.7
2003-09-23 12:14:47 51°13.6 2°56.11 109.7   36 -999
2003-09-23 12:15:47 51°13.6 2°56.11 122.8   331 -999
2003-09-23 12:16:47 51°13.6 2°56.11 126.4   237 -999
2003-09-23 12:17:47 51°13.6 2°56.11 126.3   51 -999
2003-09-23 12:18:47 51°13.6 2°56.11 125.7   244 -999